createdAt,value
2022-08-12T00:02:04.076Z,17.22
2022-08-12T00:04:50.863Z,17.27
2022-08-12T00:07:36.324Z,17.20
2022-08-12T00:10:22.043Z,17.21
2022-08-12T00:13:08.634Z,17.07
2022-08-12T00:15:54.415Z,17.13
2022-08-12T00:18:39.132Z,17.01
2022-08-12T00:21:24.409Z,17.03
2022-08-12T00:24:12.077Z,17.12
2022-08-12T00:26:59.964Z,17.06
2022-08-12T00:29:48.132Z,17.11
2022-08-12T00:32:36.229Z,17.05
2022-08-12T00:35:23.576Z,17.03
2022-08-12T00:38:14.993Z,16.77
2022-08-12T00:41:02.345Z,16.74
2022-08-12T00:43:30.193Z,16.81
2022-08-12T00:46:31.138Z,16.79
2022-08-12T00:49:01.601Z,16.80
2022-08-12T00:51:52.897Z,16.86
2022-08-12T00:54:20.456Z,16.74
2022-08-12T00:56:49.920Z,16.72
2022-08-12T00:59:17.945Z,16.64
2022-08-12T01:02:02.422Z,16.71
2022-08-12T01:04:57.717Z,16.66
2022-08-12T01:07:45.172Z,16.90
2022-08-12T01:10:32.638Z,16.64
2022-08-12T01:13:07.537Z,16.57
2022-08-12T01:15:50.233Z,16.54
2022-08-12T01:18:20.974Z,16.41
2022-08-12T01:21:12.793Z,16.24
2022-08-12T01:24:30.897Z,16.13
2022-08-12T01:26:54.689Z,16.23
2022-08-12T01:29:26.721Z,16.10
2022-08-12T01:31:59.060Z,16.21
2022-08-12T01:34:36.179Z,16.37
2022-08-12T01:37:07.179Z,16.26
2022-08-12T01:39:38.720Z,16.05
2022-08-12T01:42:32.472Z,16.03
2022-08-12T01:45:00.756Z,15.90
2022-08-12T01:47:43.056Z,15.83
2022-08-12T01:50:21.761Z,15.32
2022-08-12T01:53:05.447Z,15.70
2022-08-12T01:55:37.118Z,15.66
2022-08-12T01:58:19.465Z,15.63
2022-08-12T02:00:59.210Z,15.72
2022-08-12T02:04:05.767Z,15.81
2022-08-12T02:07:00.665Z,16.05
2022-08-12T02:10:03.626Z,15.83
2022-08-12T02:12:48.495Z,15.79
2022-08-12T02:15:27.856Z,15.71
2022-08-12T02:18:12.660Z,15.65
2022-08-12T02:20:51.507Z,15.66
2022-08-12T02:23:26.479Z,15.44
2022-08-12T02:25:59.264Z,15.29
2022-08-12T02:28:27.315Z,14.90
2022-08-12T02:30:57.452Z,15.09
2022-08-12T02:33:25.456Z,15.20
2022-08-12T02:35:53.456Z,15.18
2022-08-12T02:38:22.569Z,15.28
2022-08-12T02:40:54.550Z,15.07
2022-08-12T02:43:28.064Z,15.12
2022-08-12T02:46:01.265Z,15.11
2022-08-12T02:48:31.576Z,14.94
2022-08-12T02:51:04.835Z,14.79
2022-08-12T02:53:34.272Z,14.90
2022-08-12T02:56:03.659Z,14.94
2022-08-12T02:58:33.242Z,15.01
2022-08-12T03:01:05.873Z,15.01
2022-08-12T03:03:35.444Z,14.99
2022-08-12T03:06:07.028Z,14.87
2022-08-12T03:08:43.372Z,14.84
2022-08-12T03:11:17.767Z,14.92
2022-08-12T03:13:51.965Z,14.98
2022-08-12T03:16:21.084Z,15.38
2022-08-12T03:18:50.320Z,15.46
2022-08-12T03:21:53.021Z,15.40
2022-08-12T03:24:09.149Z,15.31
2022-08-12T03:26:37.772Z,15.35
2022-08-12T03:29:07.214Z,15.13
2022-08-12T03:31:35.991Z,15.03
2022-08-12T03:34:07.065Z,14.92
2022-08-12T03:36:36.640Z,14.90
2022-08-12T03:39:38.050Z,14.95
2022-08-12T03:42:14.321Z,14.84
2022-08-12T03:45:11.341Z,14.79
2022-08-12T03:48:02.459Z,14.84
2022-08-12T03:50:49.367Z,14.62
2022-08-12T03:53:40.848Z,14.66
2022-08-12T03:56:25.496Z,14.72
2022-08-12T03:59:13.238Z,14.71
2022-08-12T04:01:41.369Z,14.77
2022-08-12T04:04:10.813Z,14.79
2022-08-12T04:06:44.854Z,14.65
2022-08-12T04:09:15.586Z,14.69
2022-08-12T04:12:03.762Z,14.57
2022-08-12T04:14:32.754Z,14.33
2022-08-12T04:17:00.742Z,14.45
2022-08-12T04:19:29.664Z,14.57
2022-08-12T04:22:02.135Z,14.49
2022-08-12T04:24:34.589Z,14.67
2022-08-12T04:27:02.928Z,14.69
2022-08-12T04:30:17.149Z,14.62
2022-08-12T04:32:17.902Z,14.71
2022-08-12T04:34:46.770Z,14.82
2022-08-12T04:37:15.940Z,14.99
2022-08-12T04:39:44.935Z,14.95
2022-08-12T04:42:13.068Z,14.88
2022-08-12T04:44:42.151Z,15.11
2022-08-12T04:47:12.421Z,15.21
2022-08-12T04:49:41.090Z,15.27
2022-08-12T04:52:10.900Z,15.50
2022-08-12T04:54:38.656Z,15.41
2022-08-12T04:57:09.447Z,15.55
2022-08-12T04:59:46.918Z,15.60
2022-08-12T05:02:21.241Z,15.87
2022-08-12T05:04:50.761Z,15.85
2022-08-12T05:07:19.540Z,16.05
2022-08-12T05:10:00.853Z,16.12
2022-08-12T05:12:36.318Z,16.23
2022-08-12T05:15:19.500Z,16.40
2022-08-12T05:17:52.452Z,16.49
2022-08-12T05:20:20.971Z,16.71
2022-08-12T05:22:50.029Z,16.86
2022-08-12T05:25:22.284Z,16.94
2022-08-12T05:27:55.213Z,17.07
2022-08-12T05:30:26.360Z,17.25
2022-08-12T05:32:55.529Z,17.36
2022-08-12T05:35:23.273Z,17.33
2022-08-12T05:38:13.584Z,17.51
2022-08-12T05:40:41.786Z,17.46
2022-08-12T05:43:09.277Z,17.55
2022-08-12T05:45:39.349Z,17.81
2022-08-12T05:48:10.379Z,17.95
2022-08-12T05:50:37.959Z,18.04
2022-08-12T05:53:06.949Z,18.03
2022-08-12T05:55:34.797Z,17.92
2022-08-12T05:58:02.904Z,18.11
2022-08-12T06:00:31.452Z,18.24
2022-08-12T06:03:01.590Z,18.17
2022-08-12T06:05:29.571Z,18.17
2022-08-12T06:08:02.198Z,18.42
2022-08-12T06:10:32.927Z,18.49
2022-08-12T06:13:02.419Z,18.65
2022-08-12T06:15:30.748Z,18.76
2022-08-12T06:18:05.290Z,18.90
2022-08-12T06:20:41.962Z,18.99
2022-08-12T06:23:11.772Z,19.05
2022-08-12T06:25:42.048Z,18.76
2022-08-12T06:28:17.175Z,18.81
2022-08-12T06:30:57.265Z,18.94
2022-08-12T06:33:55.949Z,19.19
2022-08-12T06:36:23.206Z,19.49
2022-08-12T06:38:51.326Z,19.76
2022-08-12T06:41:38.156Z,20.06
2022-08-12T06:44:08.044Z,20.08
2022-08-12T06:46:38.884Z,20.02
2022-08-12T06:49:06.746Z,20.26
2022-08-12T06:51:34.243Z,20.20
2022-08-12T06:54:02.046Z,20.13
2022-08-12T06:57:00.164Z,20.12
2022-08-12T06:59:21.174Z,19.76
2022-08-12T07:01:50.855Z,19.69
2022-08-12T07:04:36.920Z,19.69
2022-08-12T07:07:06.915Z,19.76
2022-08-12T07:10:04.269Z,19.80
2022-08-12T07:12:27.031Z,19.83
2022-08-12T07:14:55.851Z,19.96
2022-08-12T07:17:23.286Z,19.75
2022-08-12T07:19:51.853Z,19.79
2022-08-12T07:22:19.845Z,19.91
2022-08-12T07:25:07.393Z,20.06
2022-08-12T07:27:40.568Z,20.25
2022-08-12T07:30:09.836Z,20.39
2022-08-12T07:32:37.582Z,20.58
2022-08-12T07:35:06.031Z,20.37
2022-08-12T07:37:34.922Z,20.56
2022-08-12T07:40:02.521Z,20.77
2022-08-12T07:42:30.877Z,20.98
2022-08-12T07:44:59.757Z,21.18
2022-08-12T07:47:27.656Z,21.43
2022-08-12T07:50:03.235Z,21.69
2022-08-12T07:52:33.679Z,21.52
2022-08-12T07:55:01.474Z,21.62
2022-08-12T07:57:28.950Z,22.06
2022-08-12T07:59:56.500Z,22.47
2022-08-12T08:02:26.496Z,22.62
2022-08-12T08:04:57.470Z,23.04
2022-08-12T08:07:27.340Z,22.67
2022-08-12T08:09:59.316Z,22.56
2022-08-12T08:12:45.400Z,23.16
2022-08-12T08:15:14.865Z,23.21
2022-08-12T08:17:56.486Z,22.93
2022-08-12T08:20:28.644Z,22.84
2022-08-12T08:22:58.040Z,22.82
2022-08-12T08:25:36.744Z,23.09
2022-08-12T08:28:07.205Z,23.54
2022-08-12T08:30:38.170Z,24.03
2022-08-12T08:33:23.580Z,23.64
2022-08-12T08:35:58.254Z,24.10
2022-08-12T08:38:32.422Z,24.51
2022-08-12T08:42:16.727Z,24.60
2022-08-12T08:44:10.697Z,24.86
2022-08-12T08:46:38.490Z,24.35
2022-08-12T08:49:07.676Z,24.74
2022-08-12T08:51:35.578Z,25.22
2022-08-12T08:54:03.602Z,25.64
2022-08-12T08:56:31.062Z,26.11
2022-08-12T08:58:59.201Z,26.28
2022-08-12T09:01:26.796Z,26.24
2022-08-12T09:05:13.859Z,26.13
2022-08-12T09:06:58.497Z,26.02
2022-08-12T09:09:34.152Z,26.34
2022-08-12T09:12:32.175Z,26.89
2022-08-12T09:15:00.199Z,27.47
2022-08-12T09:17:27.650Z,27.04
2022-08-12T09:20:16.324Z,27.41
2022-08-12T09:22:49.162Z,26.43
2022-08-12T09:25:25.225Z,26.87
2022-08-12T09:28:18.168Z,27.34
2022-08-12T09:30:44.200Z,27.24
2022-08-12T09:33:18.979Z,27.62
2022-08-12T09:36:04.895Z,26.85
2022-08-12T09:38:33.748Z,26.86
2022-08-12T09:42:34.330Z,26.53
2022-08-12T09:44:38.392Z,26.47
2022-08-12T09:46:56.216Z,26.29
2022-08-12T09:49:25.064Z,26.35
2022-08-12T09:51:55.151Z,26.39
2022-08-12T09:54:32.992Z,26.88
2022-08-12T09:58:07.287Z,27.76
2022-08-12T10:00:16.369Z,27.15
2022-08-12T10:03:00.118Z,27.06
2022-08-12T10:06:19.462Z,27.23
2022-08-12T10:08:23.469Z,26.79
2022-08-12T10:11:09.782Z,27.12
2022-08-12T10:13:50.124Z,26.60
2022-08-12T10:16:22.686Z,26.54
2022-08-12T10:18:53.487Z,26.98
2022-08-12T10:21:23.716Z,26.32
2022-08-12T10:23:55.094Z,26.13
2022-08-12T10:26:42.514Z,26.14
2022-08-12T10:30:03.431Z,25.82
2022-08-12T10:32:43.800Z,25.60
2022-08-12T10:35:14.392Z,25.92
2022-08-12T10:38:33.379Z,25.95
2022-08-12T10:40:33.377Z,26.87
2022-08-12T10:43:24.198Z,27.87
2022-08-12T10:45:58.292Z,27.15
2022-08-12T10:48:33.397Z,26.89
2022-08-12T10:51:51.570Z,26.47
2022-08-12T10:53:52.716Z,26.67
2022-08-12T10:56:22.204Z,26.58
2022-08-12T10:58:50.467Z,26.82
2022-08-12T11:01:50.566Z,27.29
2022-08-12T11:04:19.134Z,27.17
2022-08-12T11:07:05.822Z,27.88
2022-08-12T11:10:00.574Z,27.64
2022-08-12T11:12:54.931Z,27.80
2022-08-12T11:15:33.402Z,27.54
2022-08-12T11:18:11.810Z,27.28
2022-08-12T11:20:40.224Z,27.81
2022-08-12T11:23:35.896Z,27.97
2022-08-12T11:26:00.494Z,27.60
2022-08-12T11:28:37.401Z,27.89
2022-08-12T11:31:12.184Z,27.70
2022-08-12T11:34:06.044Z,27.67
2022-08-12T11:36:30.600Z,27.38
2022-08-12T11:38:58.336Z,27.27
2022-08-12T11:41:32.048Z,27.77
2022-08-12T11:44:29.185Z,27.60
2022-08-12T11:46:51.319Z,27.87
2022-08-12T11:49:20.482Z,28.54
2022-08-12T11:51:59.462Z,28.81
2022-08-12T11:54:29.489Z,28.08
2022-08-12T11:56:59.349Z,28.48
2022-08-12T12:02:20.196Z,28.43
2022-08-12T12:04:52.106Z,29.02
2022-08-12T12:07:19.858Z,28.76
2022-08-12T12:09:53.105Z,27.75
2022-08-12T12:12:21.570Z,26.94
2022-08-12T12:14:54.734Z,26.98
2022-08-12T12:17:23.319Z,27.36
2022-08-12T12:19:50.777Z,27.86
2022-08-12T12:22:23.543Z,27.49
2022-08-12T12:24:55.091Z,27.91
2022-08-12T12:27:39.267Z,27.88
2022-08-12T12:30:17.491Z,27.58
2022-08-12T12:32:53.358Z,26.94
2022-08-12T12:36:05.762Z,26.70
2022-08-12T12:38:12.341Z,26.92
2022-08-12T12:40:41.731Z,27.55
2022-08-12T12:43:12.013Z,27.48
2022-08-12T12:45:44.587Z,27.76
2022-08-12T12:48:15.363Z,28.27
2022-08-12T12:50:45.664Z,27.81
2022-08-12T12:54:06.228Z,27.84
2022-08-12T12:56:15.844Z,28.03
2022-08-12T12:58:43.897Z,28.21
2022-08-12T13:01:25.630Z,27.90
2022-08-12T13:04:02.006Z,28.24
2022-08-12T13:06:31.985Z,28.07
2022-08-12T13:09:02.686Z,27.63
2022-08-12T13:11:32.737Z,27.76
2022-08-12T13:14:28.314Z,28.13
2022-08-12T13:17:02.614Z,28.33
2022-08-12T13:19:38.938Z,28.46
2022-08-12T13:22:19.902Z,28.44
2022-08-12T13:24:54.759Z,28.47
2022-08-12T13:27:35.329Z,28.59
2022-08-12T13:30:06.960Z,28.62
2022-08-12T13:32:42.043Z,28.21
2022-08-12T13:35:19.413Z,28.14
2022-08-12T13:37:54.454Z,28.42
2022-08-12T13:43:40.223Z,28.58
2022-08-12T13:46:11.826Z,28.50
2022-08-12T13:48:45.330Z,28.78
2022-08-12T13:51:13.374Z,28.98
2022-08-12T13:53:57.633Z,28.98
2022-08-12T13:56:34.919Z,28.82
2022-08-12T13:59:03.361Z,29.10
2022-08-12T14:01:31.926Z,28.98
2022-08-12T14:04:04.246Z,28.61
2022-08-12T14:06:33.894Z,28.07
2022-08-12T14:09:15.363Z,27.89
2022-08-12T14:11:47.935Z,28.07
2022-08-12T14:14:26.777Z,28.27
2022-08-12T14:16:54.487Z,28.32
2022-08-12T14:19:27.156Z,28.35
2022-08-12T14:22:04.988Z,28.46
2022-08-12T14:24:35.406Z,28.44
2022-08-12T14:27:03.885Z,28.62
2022-08-12T14:30:04.412Z,28.62
2022-08-12T14:32:26.173Z,28.47
2022-08-12T14:34:56.505Z,28.49
2022-08-12T14:37:57.114Z,28.22
2022-08-12T14:40:18.177Z,28.02
2022-08-12T14:42:47.052Z,28.04
2022-08-12T14:45:14.750Z,27.83
2022-08-12T14:47:50.066Z,27.97
2022-08-12T14:50:57.632Z,28.24
2022-08-12T14:58:59.953Z,28.45
2022-08-12T15:01:41.402Z,28.49
2022-08-12T15:04:11.613Z,28.40
2022-08-12T15:06:52.364Z,28.24
2022-08-12T15:09:28.977Z,28.38
2022-08-12T15:12:03.782Z,28.30
2022-08-12T15:14:31.799Z,28.21
2022-08-12T15:17:00.337Z,28.23
2022-08-12T15:20:31.921Z,28.19
2022-08-12T15:22:37.940Z,28.26
2022-08-12T15:25:07.661Z,28.18
2022-08-12T15:28:04.631Z,28.28
2022-08-12T15:30:31.198Z,28.41
2022-08-12T15:32:59.267Z,28.34
2022-08-12T15:35:31.290Z,28.33
2022-08-12T15:38:11.982Z,28.44
2022-08-12T15:40:46.719Z,28.58
2022-08-12T15:43:51.433Z,28.38
2022-08-12T15:46:03.159Z,28.20
2022-08-12T15:48:32.813Z,28.07
2022-08-12T15:51:01.897Z,27.87
2022-08-12T15:53:51.268Z,27.79
2022-08-12T15:56:22.128Z,27.70
2022-08-12T15:58:59.128Z,27.72
2022-08-12T16:01:35.085Z,27.73
2022-08-12T16:04:02.768Z,27.77
2022-08-12T16:09:56.712Z,27.97
2022-08-12T16:12:12.245Z,27.92
2022-08-12T16:14:42.126Z,27.88
2022-08-12T16:17:14.782Z,27.91
2022-08-12T16:20:02.607Z,27.96
2022-08-12T16:22:30.732Z,27.82
2022-08-12T16:25:01.035Z,27.83
2022-08-12T16:27:31.494Z,27.83
2022-08-12T16:30:07.267Z,27.68
2022-08-12T16:32:36.721Z,27.68
2022-08-12T16:35:08.244Z,27.68
2022-08-12T16:38:24.540Z,27.70
2022-08-12T16:40:33.554Z,27.58
2022-08-12T16:43:13.105Z,27.62
2022-08-12T16:46:05.626Z,27.50
2022-08-12T16:48:35.681Z,27.61
2022-08-12T16:51:05.784Z,27.58
2022-08-12T16:53:43.707Z,27.66
2022-08-12T16:56:17.319Z,27.56
2022-08-12T16:58:47.927Z,27.51
2022-08-12T17:01:16.267Z,27.56
2022-08-12T17:03:44.771Z,27.44
2022-08-12T17:06:22.694Z,27.43
2022-08-12T17:09:02.292Z,27.44
2022-08-12T17:11:31.977Z,27.33
2022-08-12T17:14:01.955Z,27.26
2022-08-12T17:16:30.077Z,27.31
2022-08-12T17:18:59.719Z,27.27
2022-08-12T17:21:40.744Z,27.17
2022-08-12T17:24:22.425Z,27.16
2022-08-12T17:26:59.090Z,27.06
2022-08-12T17:30:01.060Z,26.98
2022-08-12T17:32:15.293Z,26.95
2022-08-12T17:35:00.804Z,26.90
2022-08-12T17:37:28.348Z,26.88
2022-08-12T17:40:10.782Z,26.83
2022-08-12T17:42:47.610Z,26.89
2022-08-12T17:45:19.276Z,26.78
2022-08-12T17:48:01.295Z,26.63
2022-08-12T17:50:32.210Z,26.63
2022-08-12T17:53:02.468Z,26.60
2022-08-12T17:55:43.663Z,26.53
2022-08-12T17:58:14.450Z,26.41
2022-08-12T18:00:45.091Z,26.19
2022-08-12T18:04:04.843Z,26.18
2022-08-12T18:06:08.566Z,25.80
2022-08-12T18:08:43.214Z,25.66
2022-08-12T18:12:06.247Z,25.82
2022-08-12T18:14:28.724Z,25.40
2022-08-12T18:17:00.724Z,25.40
2022-08-12T18:19:28.645Z,25.13
2022-08-12T18:22:17.388Z,25.03
2022-08-12T18:24:45.727Z,24.93
2022-08-12T18:27:30.146Z,24.82
2022-08-12T18:30:04.579Z,24.69
2022-08-12T18:32:58.361Z,24.61
2022-08-12T18:35:22.745Z,24.72
2022-08-12T18:37:59.338Z,24.71
2022-08-12T18:40:44.471Z,24.89
2022-08-12T18:43:15.271Z,24.42
2022-08-12T18:45:57.005Z,24.25
2022-08-12T18:48:25.663Z,24.20
2022-08-12T18:51:05.943Z,24.14
2022-08-12T18:54:05.074Z,24.12
2022-08-12T18:56:32.738Z,23.94
2022-08-12T18:59:03.364Z,23.80
2022-08-12T19:02:19.289Z,23.75
2022-08-12T19:04:21.833Z,23.78
2022-08-12T19:06:51.373Z,23.61
2022-08-12T19:09:19.480Z,23.51
2022-08-12T19:12:06.668Z,23.45
2022-08-12T19:14:38.115Z,23.36
2022-08-12T19:17:11.493Z,23.19
2022-08-12T19:19:41.800Z,23.17
2022-08-12T19:22:09.587Z,22.94
2022-08-12T19:24:54.730Z,22.87
2022-08-12T19:27:22.835Z,22.79
2022-08-12T19:30:06.604Z,22.64
2022-08-12T19:32:38.687Z,22.71
2022-08-12T19:35:53.936Z,22.58
2022-08-12T19:38:03.500Z,22.54
2022-08-12T19:40:37.357Z,22.39
2022-08-12T19:43:17.262Z,22.32
2022-08-12T19:45:50.403Z,22.28
2022-08-12T19:48:20.976Z,22.16
2022-08-12T19:50:52.351Z,22.06
2022-08-12T19:53:22.668Z,21.96
2022-08-12T19:55:52.638Z,21.85
2022-08-12T19:58:22.100Z,21.77
2022-08-12T20:00:53.239Z,21.55
2022-08-12T20:03:38.172Z,21.63
2022-08-12T20:06:14.068Z,21.56
2022-08-12T20:08:49.245Z,21.58
2022-08-12T20:12:12.454Z,21.49
2022-08-12T20:14:14.032Z,21.44
2022-08-12T20:16:52.831Z,21.28
2022-08-12T20:19:53.076Z,21.18
2022-08-12T20:22:24.650Z,21.21
2022-08-12T20:25:01.240Z,21.16
2022-08-12T20:28:02.974Z,21.11
2022-08-12T20:30:20.149Z,21.01
2022-08-12T20:32:55.332Z,20.83
2022-08-12T20:36:05.899Z,20.87
2022-08-12T20:38:26.533Z,20.79
2022-08-12T20:40:55.184Z,20.79
2022-08-12T20:43:23.978Z,20.75
2022-08-12T20:45:57.339Z,20.71
2022-08-12T20:48:28.763Z,20.75
2022-08-12T20:51:04.275Z,20.75
2022-08-12T20:53:57.841Z,20.62
2022-08-12T20:56:30.530Z,20.44
2022-08-12T20:59:01.052Z,20.36
2022-08-12T21:01:47.148Z,20.37
2022-08-12T21:04:34.887Z,20.29
2022-08-12T21:07:09.383Z,20.32
2022-08-12T21:09:41.557Z,20.22
2022-08-12T21:12:24.736Z,20.15
2022-08-12T21:15:01.447Z,20.13
2022-08-12T21:18:01.044Z,20.08
2022-08-12T21:20:34.414Z,20.09
2022-08-12T21:23:05.841Z,19.96
2022-08-12T21:25:35.799Z,20.00
2022-08-12T21:28:12.595Z,19.93
2022-08-12T21:31:11.722Z,19.91
2022-08-12T21:33:31.111Z,19.74
2022-08-12T21:36:00.907Z,19.72
2022-08-12T21:38:40.257Z,19.71
2022-08-12T21:41:09.311Z,19.58
2022-08-12T21:43:45.130Z,19.47
2022-08-12T21:46:35.075Z,19.45
2022-08-12T21:49:05.419Z,19.51
2022-08-12T21:51:49.982Z,19.47
2022-08-12T21:54:22.060Z,19.47
2022-08-12T21:56:53.665Z,19.44
2022-08-12T21:59:21.698Z,19.38
2022-08-12T22:01:50.007Z,19.27
2022-08-12T22:04:37.639Z,19.08
2022-08-12T22:07:06.220Z,19.15
2022-08-12T22:09:43.197Z,19.10
2022-08-12T22:12:28.540Z,19.09
2022-08-12T22:14:55.947Z,19.12
2022-08-12T22:17:33.912Z,19.07
2022-08-12T22:20:21.864Z,19.00
2022-08-12T22:22:56.048Z,18.99
2022-08-12T22:25:28.560Z,19.09
2022-08-12T22:28:14.542Z,18.92
2022-08-12T22:31:00.900Z,18.90
2022-08-12T22:33:28.418Z,18.79
2022-08-12T22:35:59.824Z,18.68
2022-08-12T22:38:29.661Z,18.69
2022-08-12T22:41:00.959Z,18.60
2022-08-12T22:43:59.032Z,18.62
2022-08-12T22:46:52.022Z,18.52
2022-08-12T22:49:22.736Z,18.49
2022-08-12T22:52:06.554Z,18.58
2022-08-12T22:54:37.645Z,18.59
2022-08-12T22:57:15.812Z,18.56
2022-08-12T22:59:55.886Z,18.55
2022-08-12T23:02:29.034Z,18.58
2022-08-12T23:04:57.717Z,18.35
2022-08-12T23:07:25.206Z,18.40
2022-08-12T23:09:54.745Z,18.42
2022-08-12T23:12:46.426Z,18.30
2022-08-12T23:15:14.849Z,18.29
2022-08-12T23:17:42.612Z,18.28
2022-08-12T23:20:11.570Z,18.26
2022-08-12T23:22:40.215Z,18.19
2022-08-12T23:25:19.041Z,18.17
2022-08-12T23:28:30.190Z,18.10
2022-08-12T23:30:58.600Z,18.12
2022-08-12T23:34:00.797Z,17.94
2022-08-12T23:36:39.798Z,17.94
2022-08-12T23:40:14.524Z,17.64
2022-08-12T23:42:17.700Z,17.76
2022-08-12T23:44:48.666Z,17.60
2022-08-12T23:47:20.786Z,17.58
2022-08-12T23:49:57.025Z,17.66
2022-08-12T23:52:33.888Z,17.80
2022-08-12T23:55:23.966Z,17.79
2022-08-12T23:58:17.043Z,17.82
